sensor_id;sensor_type;location;lat;lon;timestamp;P1;durP1;ratioP1;P2;durP2;ratioP2
20124;SDS011;10223;50.862;4.360;2023-04-25T00:00:45;13.50;;;3.73;;
20124;SDS011;10223;50.862;4.360;2023-04-25T00:03:12;18.63;;;5.13;;
20124;SDS011;10223;50.862;4.360;2023-04-25T00:05:39;14.77;;;3.97;;
20124;SDS011;10223;50.862;4.360;2023-04-25T00:08:08;15.23;;;4.20;;
20124;SDS011;10223;50.862;4.360;2023-04-25T00:10:34;17.07;;;3.60;;
20124;SDS011;10223;50.862;4.360;2023-04-25T00:13:02;18.13;;;4.53;;
20124;SDS011;10223;50.862;4.360;2023-04-25T00:15:29;14.67;;;4.00;;
20124;SDS011;10223;50.862;4.360;2023-04-25T00:17:56;16.13;;;4.20;;
20124;SDS011;10223;50.862;4.360;2023-04-25T00:20:23;16.50;;;4.10;;
20124;SDS011;10223;50.862;4.360;2023-04-25T00:22:50;13.97;;;4.00;;
20124;SDS011;10223;50.862;4.360;2023-04-25T00:25:19;12.73;;;4.23;;
20124;SDS011;10223;50.862;4.360;2023-04-25T00:27:46;15.37;;;4.67;;
20124;SDS011;10223;50.862;4.360;2023-04-25T00:30:13;17.17;;;4.40;;
20124;SDS011;10223;50.862;4.360;2023-04-25T00:32:40;15.93;;;4.63;;
20124;SDS011;10223;50.862;4.360;2023-04-25T00:35:08;20.20;;;4.50;;
20124;SDS011;10223;50.862;4.360;2023-04-25T00:37:35;16.03;;;4.57;;
20124;SDS011;10223;50.862;4.360;2023-04-25T00:40:03;19.87;;;5.07;;
20124;SDS011;10223;50.862;4.360;2023-04-25T00:42:34;19.53;;;4.50;;
20124;SDS011;10223;50.862;4.360;2023-04-25T00:45:02;15.83;;;4.27;;
20124;SDS011;10223;50.862;4.360;2023-04-25T00:47:32;17.67;;;3.83;;
20124;SDS011;10223;50.862;4.360;2023-04-25T00:49:59;21.87;;;4.43;;
20124;SDS011;10223;50.862;4.360;2023-04-25T00:52:26;22.07;;;4.30;;
20124;SDS011;10223;50.862;4.360;2023-04-25T00:54:53;14.47;;;4.37;;
20124;SDS011;10223;50.862;4.360;2023-04-25T00:57:20;15.90;;;4.27;;
20124;SDS011;10223;50.862;4.360;2023-04-25T00:59:49;18.20;;;4.43;;
20124;SDS011;10223;50.862;4.360;2023-04-25T01:02:17;17.60;;;3.90;;
20124;SDS011;10223;50.862;4.360;2023-04-25T01:04:44;21.90;;;4.27;;
20124;SDS011;10223;50.862;4.360;2023-04-25T01:07:11;18.10;;;4.20;;
20124;SDS011;10223;50.862;4.360;2023-04-25T01:09:38;25.83;;;4.93;;
20124;SDS011;10223;50.862;4.360;2023-04-25T01:12:05;19.30;;;4.07;;
20124;SDS011;10223;50.862;4.360;2023-04-25T01:14:32;17.40;;;4.47;;
20124;SDS011;10223;50.862;4.360;2023-04-25T01:17:00;18.40;;;4.50;;
20124;SDS011;10223;50.862;4.360;2023-04-25T01:19:27;10.10;;;3.97;;
20124;SDS011;10223;50.862;4.360;2023-04-25T01:21:56;16.10;;;5.07;;
20124;SDS011;10223;50.862;4.360;2023-04-25T01:24:23;27.47;;;6.90;;
20124;SDS011;10223;50.862;4.360;2023-04-25T01:26:50;24.13;;;4.97;;
20124;SDS011;10223;50.862;4.360;2023-04-25T01:29:18;16.50;;;4.63;;
20124;SDS011;10223;50.862;4.360;2023-04-25T01:31:46;18.63;;;4.50;;
20124;SDS011;10223;50.862;4.360;2023-04-25T01:34:13;16.27;;;4.53;;
20124;SDS011;10223;50.862;4.360;2023-04-25T01:36:40;25.70;;;6.73;;
20124;SDS011;10223;50.862;4.360;2023-04-25T01:39:08;16.90;;;4.57;;
20124;SDS011;10223;50.862;4.360;2023-04-25T01:41:36;18.63;;;4.60;;
20124;SDS011;10223;50.862;4.360;2023-04-25T01:44:03;17.93;;;5.10;;
20124;SDS011;10223;50.862;4.360;2023-04-25T01:46:30;21.70;;;7.30;;
20124;SDS011;10223;50.862;4.360;2023-04-25T01:48:57;23.50;;;8.87;;
20124;SDS011;10223;50.862;4.360;2023-04-25T01:51:24;21.67;;;6.80;;
20124;SDS011;10223;50.862;4.360;2023-04-25T01:53:51;16.50;;;4.07;;
20124;SDS011;10223;50.862;4.360;2023-04-25T01:56:20;18.70;;;5.83;;
20124;SDS011;10223;50.862;4.360;2023-04-25T01:58:46;18.10;;;4.67;;
20124;SDS011;10223;50.862;4.360;2023-04-25T02:01:13;18.30;;;3.73;;
20124;SDS011;10223;50.862;4.360;2023-04-25T02:03:40;12.93;;;4.43;;
20124;SDS011;10223;50.862;4.360;2023-04-25T02:06:07;12.90;;;4.33;;
20124;SDS011;10223;50.862;4.360;2023-04-25T02:08:34;18.80;;;5.07;;
20124;SDS011;10223;50.862;4.360;2023-04-25T02:11:02;19.03;;;5.40;;
20124;SDS011;10223;50.862;4.360;2023-04-25T02:13:30;25.43;;;5.13;;
20124;SDS011;10223;50.862;4.360;2023-04-25T02:15:57;17.53;;;4.33;;
20124;SDS011;10223;50.862;4.360;2023-04-25T02:18:24;17.03;;;4.77;;
20124;SDS011;10223;50.862;4.360;2023-04-25T02:20:51;26.13;;;5.37;;
20124;SDS011;10223;50.862;4.360;2023-04-25T02:23:18;18.33;;;4.87;;
20124;SDS011;10223;50.862;4.360;2023-04-25T02:25:45;26.17;;;5.67;;
20124;SDS011;10223;50.862;4.360;2023-04-25T02:28:12;20.17;;;4.57;;
20124;SDS011;10223;50.862;4.360;2023-04-25T02:30:40;15.57;;;4.67;;
20124;SDS011;10223;50.862;4.360;2023-04-25T02:33:07;20.20;;;5.57;;
20124;SDS011;10223;50.862;4.360;2023-04-25T02:35:34;22.80;;;4.80;;
20124;SDS011;10223;50.862;4.360;2023-04-25T02:38:00;17.47;;;4.90;;
20124;SDS011;10223;50.862;4.360;2023-04-25T02:40:27;19.07;;;4.40;;
20124;SDS011;10223;50.862;4.360;2023-04-25T02:42:54;24.93;;;5.37;;
20124;SDS011;10223;50.862;4.360;2023-04-25T02:45:22;22.33;;;4.97;;
20124;SDS011;10223;50.862;4.360;2023-04-25T02:47:51;18.80;;;4.30;;
20124;SDS011;10223;50.862;4.360;2023-04-25T02:50:17;21.67;;;5.13;;
20124;SDS011;10223;50.862;4.360;2023-04-25T02:52:44;17.80;;;4.60;;
20124;SDS011;10223;50.862;4.360;2023-04-25T02:55:12;14.70;;;4.53;;
20124;SDS011;10223;50.862;4.360;2023-04-25T02:57:39;24.07;;;4.43;;
20124;SDS011;10223;50.862;4.360;2023-04-25T03:00:06;14.80;;;4.90;;
20124;SDS011;10223;50.862;4.360;2023-04-25T03:02:36;25.07;;;4.90;;
20124;SDS011;10223;50.862;4.360;2023-04-25T03:05:05;22.43;;;4.70;;
20124;SDS011;10223;50.862;4.360;2023-04-25T03:07:32;17.60;;;4.10;;
20124;SDS011;10223;50.862;4.360;2023-04-25T03:09:59;20.37;;;5.10;;
20124;SDS011;10223;50.862;4.360;2023-04-25T03:12:26;17.20;;;4.70;;
20124;SDS011;10223;50.862;4.360;2023-04-25T03:14:53;22.70;;;4.67;;
20124;SDS011;10223;50.862;4.360;2023-04-25T03:17:20;17.40;;;4.30;;
20124;SDS011;10223;50.862;4.360;2023-04-25T03:19:46;16.53;;;4.00;;
20124;SDS011;10223;50.862;4.360;2023-04-25T03:22:15;22.40;;;4.40;;
20124;SDS011;10223;50.862;4.360;2023-04-25T03:24:42;16.03;;;4.30;;
20124;SDS011;10223;50.862;4.360;2023-04-25T03:27:09;22.27;;;5.17;;
20124;SDS011;10223;50.862;4.360;2023-04-25T03:29:35;20.90;;;4.50;;
20124;SDS011;10223;50.862;4.360;2023-04-25T03:32:02;18.33;;;4.67;;
20124;SDS011;10223;50.862;4.360;2023-04-25T03:34:29;23.33;;;4.80;;
20124;SDS011;10223;50.862;4.360;2023-04-25T03:36:56;18.33;;;4.40;;
20124;SDS011;10223;50.862;4.360;2023-04-25T03:39:24;20.40;;;5.23;;
20124;SDS011;10223;50.862;4.360;2023-04-25T03:41:51;18.63;;;4.13;;
20124;SDS011;10223;50.862;4.360;2023-04-25T03:44:18;18.10;;;4.97;;
20124;SDS011;10223;50.862;4.360;2023-04-25T03:46:45;15.20;;;4.23;;
20124;SDS011;10223;50.862;4.360;2023-04-25T03:49:12;21.00;;;4.47;;
20124;SDS011;10223;50.862;4.360;2023-04-25T03:51:39;21.13;;;4.30;;
20124;SDS011;10223;50.862;4.360;2023-04-25T03:54:06;18.70;;;4.97;;
20124;SDS011;10223;50.862;4.360;2023-04-25T03:56:34;19.93;;;4.97;;
20124;SDS011;10223;50.862;4.360;2023-04-25T03:59:01;17.37;;;4.27;;
20124;SDS011;10223;50.862;4.360;2023-04-25T04:01:28;20.00;;;4.63;;
20124;SDS011;10223;50.862;4.360;2023-04-25T04:03:55;18.17;;;4.87;;
20124;SDS011;10223;50.862;4.360;2023-04-25T04:06:22;20.97;;;4.40;;
20124;SDS011;10223;50.862;4.360;2023-04-25T04:08:49;20.33;;;5.00;;
20124;SDS011;10223;50.862;4.360;2023-04-25T04:11:15;20.57;;;4.57;;
20124;SDS011;10223;50.862;4.360;2023-04-25T04:13:44;12.73;;;3.50;;
20124;SDS011;10223;50.862;4.360;2023-04-25T04:16:10;19.43;;;4.33;;
20124;SDS011;10223;50.862;4.360;2023-04-25T04:18:37;14.07;;;3.87;;
20124;SDS011;10223;50.862;4.360;2023-04-25T04:21:04;15.63;;;4.40;;
20124;SDS011;10223;50.862;4.360;2023-04-25T04:23:31;16.30;;;4.13;;
20124;SDS011;10223;50.862;4.360;2023-04-25T04:25:58;18.17;;;4.60;;
20124;SDS011;10223;50.862;4.360;2023-04-25T04:28:26;19.47;;;5.10;;
20124;SDS011;10223;50.862;4.360;2023-04-25T04:30:54;18.70;;;4.80;;
20124;SDS011;10223;50.862;4.360;2023-04-25T04:33:21;22.70;;;4.30;;
20124;SDS011;10223;50.862;4.360;2023-04-25T04:35:48;17.73;;;4.10;;
20124;SDS011;10223;50.862;4.360;2023-04-25T04:38:17;16.63;;;5.27;;
20124;SDS011;10223;50.862;4.360;2023-04-25T04:40:44;24.23;;;4.90;;
20124;SDS011;10223;50.862;4.360;2023-04-25T04:43:12;17.43;;;4.77;;
20124;SDS011;10223;50.862;4.360;2023-04-25T04:45:42;17.13;;;4.23;;
20124;SDS011;10223;50.862;4.360;2023-04-25T04:48:10;26.07;;;5.97;;
20124;SDS011;10223;50.862;4.360;2023-04-25T04:50:39;18.33;;;5.50;;
20124;SDS011;10223;50.862;4.360;2023-04-25T04:53:06;12.43;;;4.17;;
20124;SDS011;10223;50.862;4.360;2023-04-25T04:55:33;15.43;;;4.27;;
20124;SDS011;10223;50.862;4.360;2023-04-25T04:58:00;18.07;;;4.77;;
20124;SDS011;10223;50.862;4.360;2023-04-25T05:00:27;17.70;;;4.60;;
20124;SDS011;10223;50.862;4.360;2023-04-25T05:02:54;19.90;;;5.40;;
20124;SDS011;10223;50.862;4.360;2023-04-25T05:05:22;23.20;;;4.93;;
20124;SDS011;10223;50.862;4.360;2023-04-25T05:07:49;16.30;;;4.50;;
20124;SDS011;10223;50.862;4.360;2023-04-25T05:10:16;14.77;;;4.30;;
20124;SDS011;10223;50.862;4.360;2023-04-25T05:12:44;16.60;;;3.87;;
20124;SDS011;10223;50.862;4.360;2023-04-25T05:15:10;10.93;;;3.77;;
20124;SDS011;10223;50.862;4.360;2023-04-25T05:17:38;18.47;;;4.23;;
20124;SDS011;10223;50.862;4.360;2023-04-25T05:20:05;13.63;;;3.93;;
20124;SDS011;10223;50.862;4.360;2023-04-25T05:22:35;18.77;;;4.40;;
20124;SDS011;10223;50.862;4.360;2023-04-25T05:25:02;23.17;;;4.97;;
20124;SDS011;10223;50.862;4.360;2023-04-25T05:27:29;14.40;;;4.37;;
20124;SDS011;10223;50.862;4.360;2023-04-25T05:29:56;17.53;;;4.43;;
20124;SDS011;10223;50.862;4.360;2023-04-25T05:32:23;13.37;;;4.90;;
20124;SDS011;10223;50.862;4.360;2023-04-25T05:34:51;15.10;;;5.10;;
20124;SDS011;10223;50.862;4.360;2023-04-25T05:37:18;11.90;;;4.83;;
20124;SDS011;10223;50.862;4.360;2023-04-25T05:39:46;18.53;;;5.37;;
20124;SDS011;10223;50.862;4.360;2023-04-25T05:42:13;19.70;;;6.83;;
20124;SDS011;10223;50.862;4.360;2023-04-25T05:44:40;16.13;;;5.73;;
20124;SDS011;10223;50.862;4.360;2023-04-25T05:47:07;16.73;;;5.43;;
20124;SDS011;10223;50.862;4.360;2023-04-25T05:49:34;20.47;;;5.53;;
20124;SDS011;10223;50.862;4.360;2023-04-25T05:52:00;21.50;;;6.07;;
20124;SDS011;10223;50.862;4.360;2023-04-25T05:54:27;29.30;;;9.50;;
20124;SDS011;10223;50.862;4.360;2023-04-25T05:56:57;16.77;;;4.93;;
20124;SDS011;10223;50.862;4.360;2023-04-25T05:59:24;19.77;;;5.20;;
20124;SDS011;10223;50.862;4.360;2023-04-25T06:01:50;20.77;;;5.43;;
20124;SDS011;10223;50.862;4.360;2023-04-25T06:04:17;18.70;;;5.70;;
20124;SDS011;10223;50.862;4.360;2023-04-25T06:06:44;20.37;;;5.20;;
20124;SDS011;10223;50.862;4.360;2023-04-25T06:09:11;16.60;;;5.23;;
20124;SDS011;10223;50.862;4.360;2023-04-25T06:11:38;18.57;;;5.00;;
20124;SDS011;10223;50.862;4.360;2023-04-25T06:14:06;16.63;;;5.57;;
20124;SDS011;10223;50.862;4.360;2023-04-25T06:16:33;16.40;;;5.00;;
20124;SDS011;10223;50.862;4.360;2023-04-25T06:19:00;14.97;;;5.27;;
20124;SDS011;10223;50.862;4.360;2023-04-25T06:21:27;15.43;;;4.90;;
20124;SDS011;10223;50.862;4.360;2023-04-25T06:23:54;17.17;;;6.03;;
20124;SDS011;10223;50.862;4.360;2023-04-25T06:26:20;15.23;;;4.30;;
20124;SDS011;10223;50.862;4.360;2023-04-25T06:28:47;13.23;;;4.90;;
20124;SDS011;10223;50.862;4.360;2023-04-25T06:31:16;15.70;;;4.77;;
20124;SDS011;10223;50.862;4.360;2023-04-25T06:33:42;15.00;;;4.23;;
20124;SDS011;10223;50.862;4.360;2023-04-25T06:36:09;12.33;;;4.17;;
20124;SDS011;10223;50.862;4.360;2023-04-25T06:38:36;12.83;;;3.87;;
20124;SDS011;10223;50.862;4.360;2023-04-25T06:41:03;9.63;;;3.37;;
20124;SDS011;10223;50.862;4.360;2023-04-25T06:43:30;23.30;;;4.53;;
20124;SDS011;10223;50.862;4.360;2023-04-25T06:45:58;12.33;;;3.40;;
20124;SDS011;10223;50.862;4.360;2023-04-25T06:48:27;17.60;;;4.17;;
20124;SDS011;10223;50.862;4.360;2023-04-25T06:50:54;13.03;;;3.80;;
20124;SDS011;10223;50.862;4.360;2023-04-25T06:53:21;19.30;;;4.43;;
20124;SDS011;10223;50.862;4.360;2023-04-25T06:55:48;16.40;;;3.77;;
20124;SDS011;10223;50.862;4.360;2023-04-25T06:58:15;16.03;;;4.20;;
20124;SDS011;10223;50.862;4.360;2023-04-25T07:00:42;19.67;;;4.53;;
20124;SDS011;10223;50.862;4.360;2023-04-25T07:03:09;23.93;;;4.20;;
20124;SDS011;10223;50.862;4.360;2023-04-25T07:05:37;13.83;;;3.17;;
20124;SDS011;10223;50.862;4.360;2023-04-25T07:08:04;12.53;;;3.40;;
20124;SDS011;10223;50.862;4.360;2023-04-25T07:10:31;15.33;;;3.20;;
20124;SDS011;10223;50.862;4.360;2023-04-25T07:12:58;14.43;;;5.77;;
20124;SDS011;10223;50.862;4.360;2023-04-25T07:15:25;23.47;;;6.27;;
20124;SDS011;10223;50.862;4.360;2023-04-25T07:17:52;24.90;;;5.70;;
20124;SDS011;10223;50.862;4.360;2023-04-25T07:20:19;19.80;;;5.17;;
20124;SDS011;10223;50.862;4.360;2023-04-25T07:22:47;14.97;;;3.50;;
20124;SDS011;10223;50.862;4.360;2023-04-25T07:25:15;14.77;;;3.43;;
20124;SDS011;10223;50.862;4.360;2023-04-25T07:27:42;13.70;;;3.07;;
20124;SDS011;10223;50.862;4.360;2023-04-25T07:30:09;14.80;;;4.27;;
20124;SDS011;10223;50.862;4.360;2023-04-25T07:32:37;15.93;;;4.03;;
20124;SDS011;10223;50.862;4.360;2023-04-25T07:35:04;13.57;;;3.70;;
20124;SDS011;10223;50.862;4.360;2023-04-25T07:37:33;9.33;;;3.17;;
20124;SDS011;10223;50.862;4.360;2023-04-25T07:40:01;10.57;;;2.63;;
20124;SDS011;10223;50.862;4.360;2023-04-25T07:42:30;11.67;;;3.10;;
20124;SDS011;10223;50.862;4.360;2023-04-25T07:44:57;16.53;;;3.67;;
20124;SDS011;10223;50.862;4.360;2023-04-25T07:47:24;14.97;;;3.77;;
20124;SDS011;10223;50.862;4.360;2023-04-25T07:49:50;11.30;;;3.13;;
20124;SDS011;10223;50.862;4.360;2023-04-25T07:52:17;9.27;;;2.93;;
20124;SDS011;10223;50.862;4.360;2023-04-25T07:54:44;18.57;;;3.30;;
20124;SDS011;10223;50.862;4.360;2023-04-25T07:57:13;13.67;;;3.53;;
20124;SDS011;10223;50.862;4.360;2023-04-25T07:59:42;9.17;;;3.10;;
20124;SDS011;10223;50.862;4.360;2023-04-25T08:02:08;13.13;;;2.80;;
20124;SDS011;10223;50.862;4.360;2023-04-25T08:04:35;11.90;;;3.27;;
20124;SDS011;10223;50.862;4.360;2023-04-25T08:07:02;10.17;;;2.63;;
20124;SDS011;10223;50.862;4.360;2023-04-25T08:09:29;11.93;;;2.13;;
20124;SDS011;10223;50.862;4.360;2023-04-25T08:11:59;7.73;;;2.53;;
20124;SDS011;10223;50.862;4.360;2023-04-25T08:14:28;9.30;;;2.83;;
20124;SDS011;10223;50.862;4.360;2023-04-25T08:17:00;14.23;;;2.70;;
20124;SDS011;10223;50.862;4.360;2023-04-25T08:19:28;14.67;;;2.60;;
20124;SDS011;10223;50.862;4.360;2023-04-25T08:21:55;10.50;;;3.23;;
20124;SDS011;10223;50.862;4.360;2023-04-25T08:24:22;16.63;;;3.27;;
20124;SDS011;10223;50.862;4.360;2023-04-25T08:26:49;11.30;;;2.30;;
20124;SDS011;10223;50.862;4.360;2023-04-25T08:29:17;16.33;;;4.53;;
20124;SDS011;10223;50.862;4.360;2023-04-25T08:31:45;15.00;;;4.07;;
20124;SDS011;10223;50.862;4.360;2023-04-25T08:34:13;13.50;;;3.37;;
20124;SDS011;10223;50.862;4.360;2023-04-25T08:36:40;16.80;;;2.80;;
20124;SDS011;10223;50.862;4.360;2023-04-25T08:39:07;10.73;;;2.53;;
20124;SDS011;10223;50.862;4.360;2023-04-25T08:41:34;8.40;;;1.87;;
20124;SDS011;10223;50.862;4.360;2023-04-25T08:44:02;12.67;;;3.53;;
20124;SDS011;10223;50.862;4.360;2023-04-25T08:46:29;14.43;;;2.47;;
20124;SDS011;10223;50.862;4.360;2023-04-25T08:49:00;19.87;;;3.77;;
20124;SDS011;10223;50.862;4.360;2023-04-25T08:51:29;10.60;;;2.50;;
20124;SDS011;10223;50.862;4.360;2023-04-25T08:54:00;9.23;;;2.67;;
20124;SDS011;10223;50.862;4.360;2023-04-25T08:56:34;12.27;;;2.90;;
20124;SDS011;10223;50.862;4.360;2023-04-25T08:59:02;11.77;;;3.33;;
20124;SDS011;10223;50.862;4.360;2023-04-25T09:01:28;9.40;;;2.30;;
20124;SDS011;10223;50.862;4.360;2023-04-25T09:03:56;8.77;;;2.50;;
20124;SDS011;10223;50.862;4.360;2023-04-25T09:06:25;8.53;;;1.83;;
20124;SDS011;10223;50.862;4.360;2023-04-25T09:08:52;15.30;;;3.17;;
20124;SDS011;10223;50.862;4.360;2023-04-25T09:11:19;9.90;;;2.40;;
20124;SDS011;10223;50.862;4.360;2023-04-25T09:13:46;9.17;;;2.13;;
20124;SDS011;10223;50.862;4.360;2023-04-25T09:16:13;8.33;;;2.30;;
20124;SDS011;10223;50.862;4.360;2023-04-25T09:18:42;9.23;;;2.47;;
20124;SDS011;10223;50.862;4.360;2023-04-25T09:21:11;10.73;;;2.00;;
20124;SDS011;10223;50.862;4.360;2023-04-25T09:23:41;12.90;;;2.13;;
20124;SDS011;10223;50.862;4.360;2023-04-25T09:26:10;17.40;;;2.27;;
20124;SDS011;10223;50.862;4.360;2023-04-25T09:28:40;7.23;;;2.30;;
20124;SDS011;10223;50.862;4.360;2023-04-25T09:31:09;10.07;;;3.73;;
20124;SDS011;10223;50.862;4.360;2023-04-25T09:33:36;10.97;;;2.37;;
20124;SDS011;10223;50.862;4.360;2023-04-25T09:36:04;8.43;;;2.10;;
20124;SDS011;10223;50.862;4.360;2023-04-25T09:38:39;9.80;;;2.10;;
20124;SDS011;10223;50.862;4.360;2023-04-25T09:41:07;11.23;;;2.80;;
20124;SDS011;10223;50.862;4.360;2023-04-25T09:43:35;11.40;;;2.20;;
20124;SDS011;10223;50.862;4.360;2023-04-25T09:46:02;6.80;;;1.60;;
20124;SDS011;10223;50.862;4.360;2023-04-25T09:48:33;10.70;;;2.10;;
20124;SDS011;10223;50.862;4.360;2023-04-25T09:51:04;7.10;;;2.07;;
20124;SDS011;10223;50.862;4.360;2023-04-25T09:53:33;10.63;;;1.83;;
20124;SDS011;10223;50.862;4.360;2023-04-25T09:56:02;7.10;;;2.40;;
20124;SDS011;10223;50.862;4.360;2023-04-25T09:58:32;9.13;;;1.73;;
20124;SDS011;10223;50.862;4.360;2023-04-25T10:01:00;6.97;;;1.77;;
20124;SDS011;10223;50.862;4.360;2023-04-25T10:03:29;7.03;;;1.67;;
20124;SDS011;10223;50.862;4.360;2023-04-25T10:05:59;7.57;;;2.17;;
20124;SDS011;10223;50.862;4.360;2023-04-25T10:08:28;4.20;;;1.30;;
20124;SDS011;10223;50.862;4.360;2023-04-25T10:11:00;4.73;;;1.60;;
20124;SDS011;10223;50.862;4.360;2023-04-25T10:13:28;4.90;;;1.73;;
20124;SDS011;10223;50.862;4.360;2023-04-25T10:15:57;6.70;;;1.47;;
20124;SDS011;10223;50.862;4.360;2023-04-25T10:18:24;5.87;;;1.33;;
20124;SDS011;10223;50.862;4.360;2023-04-25T10:20:53;6.23;;;1.50;;
20124;SDS011;10223;50.862;4.360;2023-04-25T10:23:21;4.57;;;1.57;;
20124;SDS011;10223;50.862;4.360;2023-04-25T10:25:48;4.40;;;1.43;;
20124;SDS011;10223;50.862;4.360;2023-04-25T10:28:18;8.97;;;1.60;;
20124;SDS011;10223;50.862;4.360;2023-04-25T10:33:34;5.77;;;1.67;;
20124;SDS011;10223;50.862;4.360;2023-04-25T10:36:09;7.40;;;1.83;;
20124;SDS011;10223;50.862;4.360;2023-04-25T10:38:37;10.60;;;2.00;;
20124;SDS011;10223;50.862;4.360;2023-04-25T10:41:05;4.43;;;1.40;;
20124;SDS011;10223;50.862;4.360;2023-04-25T10:43:36;7.77;;;1.70;;
20124;SDS011;10223;50.862;4.360;2023-04-25T10:46:12;10.00;;;1.80;;
20124;SDS011;10223;50.862;4.360;2023-04-25T10:48:44;4.47;;;1.70;;
20124;SDS011;10223;50.862;4.360;2023-04-25T10:51:16;7.33;;;1.40;;
20124;SDS011;10223;50.862;4.360;2023-04-25T10:53:44;8.10;;;3.37;;
20124;SDS011;10223;50.862;4.360;2023-04-25T10:56:11;8.53;;;1.73;;
20124;SDS011;10223;50.862;4.360;2023-04-25T10:58:44;10.63;;;2.03;;
20124;SDS011;10223;50.862;4.360;2023-04-25T11:01:12;6.47;;;1.77;;
20124;SDS011;10223;50.862;4.360;2023-04-25T11:03:40;8.03;;;1.43;;
20124;SDS011;10223;50.862;4.360;2023-04-25T11:06:22;7.20;;;1.73;;
20124;SDS011;10223;50.862;4.360;2023-04-25T11:08:54;8.10;;;1.97;;
20124;SDS011;10223;50.862;4.360;2023-04-25T11:11:21;10.97;;;2.27;;
20124;SDS011;10223;50.862;4.360;2023-04-25T11:13:50;8.57;;;1.57;;
20124;SDS011;10223;50.862;4.360;2023-04-25T11:16:17;9.33;;;2.07;;
20124;SDS011;10223;50.862;4.360;2023-04-25T11:18:44;12.17;;;1.50;;
20124;SDS011;10223;50.862;4.360;2023-04-25T11:21:11;8.23;;;1.70;;
20124;SDS011;10223;50.862;4.360;2023-04-25T11:23:39;6.17;;;1.70;;
20124;SDS011;10223;50.862;4.360;2023-04-25T11:26:06;3.97;;;1.63;;
20124;SDS011;10223;50.862;4.360;2023-04-25T11:28:33;8.87;;;1.63;;
20124;SDS011;10223;50.862;4.360;2023-04-25T11:31:02;12.30;;;1.67;;
20124;SDS011;10223;50.862;4.360;2023-04-25T11:33:30;10.83;;;2.17;;
20124;SDS011;10223;50.862;4.360;2023-04-25T11:35:57;11.37;;;2.60;;
20124;SDS011;10223;50.862;4.360;2023-04-25T11:38:24;6.27;;;1.70;;
20124;SDS011;10223;50.862;4.360;2023-04-25T11:40:52;6.73;;;1.60;;
20124;SDS011;10223;50.862;4.360;2023-04-25T11:43:20;3.87;;;1.23;;
20124;SDS011;10223;50.862;4.360;2023-04-25T11:45:48;7.33;;;1.90;;
20124;SDS011;10223;50.862;4.360;2023-04-25T11:48:17;14.87;;;1.83;;
20124;SDS011;10223;50.862;4.360;2023-04-25T11:50:44;9.13;;;2.40;;
20124;SDS011;10223;50.862;4.360;2023-04-25T11:53:11;5.23;;;1.37;;
20124;SDS011;10223;50.862;4.360;2023-04-25T11:55:38;19.67;;;2.93;;
20124;SDS011;10223;50.862;4.360;2023-04-25T11:58:05;5.17;;;1.50;;
20124;SDS011;10223;50.862;4.360;2023-04-25T12:00:33;8.37;;;2.17;;
20124;SDS011;10223;50.862;4.360;2023-04-25T12:03:01;5.83;;;1.70;;
20124;SDS011;10223;50.862;4.360;2023-04-25T12:05:30;7.13;;;2.07;;
20124;SDS011;10223;50.862;4.360;2023-04-25T12:08:09;4.23;;;1.40;;
20124;SDS011;10223;50.862;4.360;2023-04-25T12:10:37;7.50;;;1.93;;
20124;SDS011;10223;50.862;4.360;2023-04-25T12:13:17;5.90;;;2.00;;
20124;SDS011;10223;50.862;4.360;2023-04-25T12:15:46;5.60;;;1.40;;
20124;SDS011;10223;50.862;4.360;2023-04-25T12:18:13;31.53;;;3.37;;
20124;SDS011;10223;50.862;4.360;2023-04-25T12:20:41;5.73;;;1.60;;
20124;SDS011;10223;50.862;4.360;2023-04-25T12:23:08;6.27;;;1.90;;
20124;SDS011;10223;50.862;4.360;2023-04-25T12:25:37;10.47;;;2.90;;
20124;SDS011;10223;50.862;4.360;2023-04-25T12:28:11;19.07;;;9.70;;
20124;SDS011;10223;50.862;4.360;2023-04-25T12:30:52;18.33;;;6.90;;
20124;SDS011;10223;50.862;4.360;2023-04-25T12:33:20;10.50;;;2.27;;
20124;SDS011;10223;50.862;4.360;2023-04-25T12:35:48;10.53;;;1.83;;
20124;SDS011;10223;50.862;4.360;2023-04-25T12:38:20;5.67;;;2.50;;
20124;SDS011;10223;50.862;4.360;2023-04-25T12:40:48;6.70;;;2.20;;
20124;SDS011;10223;50.862;4.360;2023-04-25T12:43:15;6.77;;;1.10;;
20124;SDS011;10223;50.862;4.360;2023-04-25T12:45:41;4.87;;;1.00;;
20124;SDS011;10223;50.862;4.360;2023-04-25T12:48:08;3.73;;;1.37;;
20124;SDS011;10223;50.862;4.360;2023-04-25T12:50:35;4.93;;;1.30;;
20124;SDS011;10223;50.862;4.360;2023-04-25T12:53:03;6.33;;;1.80;;
20124;SDS011;10223;50.862;4.360;2023-04-25T12:55:30;3.80;;;1.20;;
20124;SDS011;10223;50.862;4.360;2023-04-25T12:57:57;6.07;;;1.27;;
20124;SDS011;10223;50.862;4.360;2023-04-25T13:00:24;8.10;;;1.53;;
20124;SDS011;10223;50.862;4.360;2023-04-25T13:02:51;10.63;;;2.30;;
20124;SDS011;10223;50.862;4.360;2023-04-25T13:05:18;8.00;;;1.67;;
20124;SDS011;10223;50.862;4.360;2023-04-25T13:07:45;6.17;;;1.63;;
20124;SDS011;10223;50.862;4.360;2023-04-25T13:10:13;8.93;;;1.40;;
20124;SDS011;10223;50.862;4.360;2023-04-25T13:12:40;6.83;;;1.60;;
20124;SDS011;10223;50.862;4.360;2023-04-25T13:15:08;4.37;;;1.10;;
20124;SDS011;10223;50.862;4.360;2023-04-25T13:17:36;7.47;;;1.40;;
20124;SDS011;10223;50.862;4.360;2023-04-25T13:20:04;5.00;;;1.20;;
20124;SDS011;10223;50.862;4.360;2023-04-25T13:22:33;3.90;;;1.10;;
20124;SDS011;10223;50.862;4.360;2023-04-25T13:25:01;5.03;;;1.07;;
20124;SDS011;10223;50.862;4.360;2023-04-25T13:27:30;4.10;;;1.40;;
20124;SDS011;10223;50.862;4.360;2023-04-25T13:29:58;3.22;;;1.20;;
20124;SDS011;10223;50.862;4.360;2023-04-25T13:32:26;7.85;;;1.25;;
20124;SDS011;10223;50.862;4.360;2023-04-25T13:34:53;7.70;;;2.30;;
20124;SDS011;10223;50.862;4.360;2023-04-25T13:37:20;5.47;;;1.25;;
20124;SDS011;10223;50.862;4.360;2023-04-25T13:39:49;8.00;;;2.40;;
20124;SDS011;10223;50.862;4.360;2023-04-25T13:42:16;5.30;;;1.17;;
20124;SDS011;10223;50.862;4.360;2023-04-25T13:44:44;9.20;;;5.68;;
20124;SDS011;10223;50.862;4.360;2023-04-25T13:47:11;5.72;;;1.70;;
20124;SDS011;10223;50.862;4.360;2023-04-25T13:49:38;7.68;;;1.80;;
20124;SDS011;10223;50.862;4.360;2023-04-25T13:52:05;8.52;;;2.88;;
20124;SDS011;10223;50.862;4.360;2023-04-25T13:54:32;17.00;;;5.50;;
20124;SDS011;10223;50.862;4.360;2023-04-25T13:56:59;10.40;;;1.50;;
20124;SDS011;10223;50.862;4.360;2023-04-25T13:59:27;4.30;;;1.40;;
20124;SDS011;10223;50.862;4.360;2023-04-25T14:01:55;7.50;;;1.90;;
20124;SDS011;10223;50.862;4.360;2023-04-25T14:04:22;8.87;;;1.33;;
20124;SDS011;10223;50.862;4.360;2023-04-25T14:06:49;7.17;;;1.50;;
20124;SDS011;10223;50.862;4.360;2023-04-25T14:09:16;4.60;;;1.27;;
20124;SDS011;10223;50.862;4.360;2023-04-25T14:11:43;6.45;;;1.50;;
20124;SDS011;10223;50.862;4.360;2023-04-25T14:14:10;9.82;;;1.95;;
20124;SDS011;10223;50.862;4.360;2023-04-25T14:16:37;5.15;;;1.40;;
20124;SDS011;10223;50.862;4.360;2023-04-25T14:19:05;6.93;;;1.45;;
20124;SDS011;10223;50.862;4.360;2023-04-25T14:21:32;5.15;;;1.30;;
20124;SDS011;10223;50.862;4.360;2023-04-25T14:24:00;5.93;;;2.10;;
20124;SDS011;10223;50.862;4.360;2023-04-25T14:26:27;7.70;;;1.75;;
20124;SDS011;10223;50.862;4.360;2023-04-25T14:28:53;8.05;;;1.88;;
20124;SDS011;10223;50.862;4.360;2023-04-25T14:31:20;3.85;;;1.20;;
20124;SDS011;10223;50.862;4.360;2023-04-25T14:33:47;4.22;;;1.30;;
20124;SDS011;10223;50.862;4.360;2023-04-25T14:36:16;9.35;;;1.52;;
20124;SDS011;10223;50.862;4.360;2023-04-25T14:38:43;5.95;;;1.88;;
20124;SDS011;10223;50.862;4.360;2023-04-25T14:41:10;5.85;;;1.20;;
20124;SDS011;10223;50.862;4.360;2023-04-25T14:43:37;4.13;;;1.10;;